createdAt,value
2023-01-19T00:01:42.119Z,11.98
2023-01-19T00:06:46.532Z,12.06
2023-01-19T00:11:52.227Z,11.49
2023-01-19T00:16:56.526Z,11.43
2023-01-19T00:22:00.757Z,11.59
2023-01-19T00:27:06.168Z,11.43
2023-01-19T00:32:10.278Z,11.40
2023-01-19T00:37:14.543Z,11.41
2023-01-19T00:42:37.266Z,11.71
2023-01-19T00:47:42.666Z,12.13
2023-01-19T00:52:46.857Z,11.95
2023-01-19T00:57:52.287Z,11.80
2023-01-19T01:02:57.046Z,11.58
2023-01-19T01:08:01.489Z,11.89
2023-01-19T01:13:20.840Z,12.01
2023-01-19T01:18:26.858Z,12.14
2023-01-19T01:23:30.986Z,12.06
2023-01-19T01:28:36.542Z,12.08
2023-01-19T01:33:41.887Z,11.96
2023-01-19T01:38:46.478Z,11.75
2023-01-19T01:43:55.067Z,12.11
2023-01-19T01:49:05.934Z,11.85
2023-01-19T01:54:19.428Z,11.61
2023-01-19T01:59:29.517Z,11.38
2023-01-19T02:04:33.609Z,11.22
2023-01-19T02:09:56.206Z,11.30
2023-01-19T02:15:01.717Z,11.06
2023-01-19T02:20:10.565Z,10.90
2023-01-19T02:25:17.902Z,10.90
2023-01-19T02:30:22.051Z,10.79
2023-01-19T02:35:27.435Z,10.65
2023-01-19T02:40:32.999Z,10.55
2023-01-19T02:45:38.803Z,10.24
2023-01-19T02:50:46.358Z,11.01
2023-01-19T02:55:58.106Z,11.43
2023-01-19T03:01:15.275Z,11.38
2023-01-19T03:06:32.825Z,11.55
2023-01-19T03:11:43.214Z,11.85
2023-01-19T03:16:50.503Z,11.95
2023-01-19T03:21:59.565Z,11.84
2023-01-19T03:27:13.025Z,11.87
2023-01-19T03:32:21.788Z,11.72
2023-01-19T03:37:29.737Z,12.01
2023-01-19T03:42:36.408Z,11.72
2023-01-19T03:47:41.098Z,11.84
2023-01-19T03:52:45.126Z,11.72
2023-01-19T03:57:50.510Z,11.36
2023-01-19T04:02:55.792Z,11.33
2023-01-19T04:08:00.763Z,11.55
2023-01-19T04:13:06.643Z,11.62
2023-01-19T04:18:10.842Z,11.47
2023-01-19T04:23:17.067Z,11.79
2023-01-19T04:28:22.636Z,11.36
2023-01-19T04:33:28.441Z,11.27
2023-01-19T04:38:32.616Z,11.37
2023-01-19T04:43:38.493Z,11.46
2023-01-19T04:48:42.771Z,11.48
2023-01-19T04:53:47.750Z,11.30
2023-01-19T04:58:53.407Z,11.81
2023-01-19T05:04:00.720Z,11.38
2023-01-19T05:09:04.778Z,11.48
2023-01-19T05:14:10.173Z,11.61
2023-01-19T05:19:16.822Z,11.45
2023-01-19T05:24:21.112Z,11.40
2023-01-19T05:29:27.006Z,11.21
2023-01-19T05:34:31.136Z,11.25
2023-01-19T05:39:35.235Z,11.42
2023-01-19T05:44:40.680Z,11.40
2023-01-19T05:49:45.745Z,11.16
2023-01-19T05:54:52.291Z,11.60
2023-01-19T06:00:01.006Z,11.71
2023-01-19T06:05:12.375Z,11.76
2023-01-19T06:10:18.123Z,11.95
2023-01-19T06:15:24.606Z,12.01
2023-01-19T06:20:28.827Z,12.13
2023-01-19T06:25:33.731Z,12.18
2023-01-19T06:30:41.544Z,12.29
2023-01-19T06:35:46.468Z,12.25
2023-01-19T06:40:55.792Z,12.28
2023-01-19T06:46:02.494Z,12.29
2023-01-19T06:51:07.187Z,12.42
2023-01-19T06:56:11.426Z,12.71
2023-01-19T07:01:17.727Z,12.99
2023-01-19T07:06:22.299Z,13.46
2023-01-19T07:11:32.265Z,14.20
2023-01-19T07:16:38.680Z,14.57
2023-01-19T07:21:42.946Z,15.10
2023-01-19T07:26:47.364Z,15.36
2023-01-19T07:31:55.620Z,15.81
2023-01-19T07:37:00.169Z,16.15
2023-01-19T07:42:05.231Z,15.99
2023-01-19T07:47:12.781Z,16.15
2023-01-19T07:52:16.932Z,15.97
2023-01-19T07:57:21.967Z,16.12
2023-01-19T08:02:29.785Z,16.44
2023-01-19T08:07:36.153Z,16.32
2023-01-19T08:12:42.122Z,16.15
2023-01-19T08:17:47.520Z,16.43
2023-01-19T08:22:52.205Z,17.14
2023-01-19T08:27:57.662Z,17.50
2023-01-19T08:33:08.891Z,17.66
2023-01-19T08:38:13.013Z,17.30
2023-01-19T08:43:20.066Z,17.84
2023-01-19T08:48:26.283Z,17.53
2023-01-19T08:53:30.411Z,18.08
2023-01-19T08:58:35.236Z,18.75
2023-01-19T09:03:40.796Z,19.00
2023-01-19T09:08:47.745Z,18.90
2023-01-19T09:13:55.326Z,19.13
2023-01-19T09:19:01.721Z,18.65
2023-01-19T09:24:07.420Z,18.94
2023-01-19T09:29:11.904Z,19.13
2023-01-19T09:34:23.886Z,19.55
2023-01-19T09:39:27.941Z,19.27
2023-01-19T09:44:36.074Z,19.67
2023-01-19T09:49:48.500Z,19.51
2023-01-19T09:54:56.748Z,19.15
2023-01-19T10:00:02.767Z,20.87
2023-01-19T10:05:29.369Z,21.21
2023-01-19T10:10:34.458Z,20.92
2023-01-19T10:15:48.349Z,21.68
2023-01-19T10:20:57.877Z,20.81
2023-01-19T10:26:11.384Z,21.34
2023-01-19T10:31:19.792Z,20.93
2023-01-19T10:36:30.128Z,20.87
2023-01-19T10:41:42.867Z,20.67
2023-01-19T10:46:49.550Z,19.91
2023-01-19T10:51:56.980Z,19.87
2023-01-19T10:57:06.479Z,18.56
2023-01-19T11:02:19.439Z,17.73
2023-01-19T11:07:33.565Z,17.53
2023-01-19T11:12:43.754Z,16.74
2023-01-19T11:17:49.618Z,16.93
2023-01-19T11:23:08.727Z,17.66
2023-01-19T11:28:19.889Z,18.31
2023-01-19T11:33:26.890Z,18.54
2023-01-19T11:38:33.278Z,19.04
2023-01-19T11:43:48.690Z,19.64
2023-01-19T11:49:02.096Z,19.35
2023-01-19T11:54:25.268Z,19.29
2023-01-19T11:59:31.461Z,19.58
2023-01-19T12:04:39.934Z,19.76
2023-01-19T12:09:51.267Z,19.77
2023-01-19T12:15:00.990Z,19.73
2023-01-19T12:20:14.771Z,19.68
2023-01-19T12:25:26.340Z,20.03
2023-01-19T12:30:31.478Z,20.35
2023-01-19T12:35:58.302Z,20.61
2023-01-19T12:41:25.783Z,20.06
2023-01-19T12:46:33.582Z,19.79
2023-01-19T12:51:37.631Z,19.40
2023-01-19T12:56:42.857Z,19.21
2023-01-19T13:02:25.647Z,19.71
2023-01-19T13:07:29.826Z,19.33
2023-01-19T13:12:35.556Z,18.86
2023-01-19T13:17:51.022Z,19.04
2023-01-19T13:23:20.758Z,19.32
2023-01-19T13:28:29.838Z,19.50
2023-01-19T13:33:43.631Z,18.72
2023-01-19T13:38:49.412Z,18.05
2023-01-19T13:44:02.020Z,17.45
2023-01-19T13:49:18.091Z,17.20
2023-01-19T13:54:26.550Z,16.98
2023-01-19T13:59:32.228Z,17.29
2023-01-19T14:04:36.556Z,17.14
2023-01-19T14:09:41.600Z,17.00
2023-01-19T14:14:48.473Z,16.88
2023-01-19T14:19:54.501Z,17.09
2023-01-19T14:25:31.255Z,17.40
2023-01-19T14:30:37.409Z,17.04
2023-01-19T14:35:43.899Z,16.59
2023-01-19T14:40:51.418Z,16.59
2023-01-19T14:45:59.286Z,16.04
2023-01-19T14:51:06.702Z,15.62
2023-01-19T14:56:10.736Z,15.44
2023-01-19T15:01:18.053Z,15.10
2023-01-19T15:06:25.664Z,14.81
2023-01-19T15:11:34.325Z,14.58
2023-01-19T15:16:40.603Z,14.80
2023-01-19T15:21:47.606Z,14.42
2023-01-19T15:26:52.126Z,14.27
2023-01-19T15:31:57.499Z,14.11
2023-01-19T15:37:01.464Z,13.86
2023-01-19T15:42:11.547Z,13.81
2023-01-19T15:47:20.006Z,13.79
2023-01-19T15:52:24.274Z,13.68
2023-01-19T15:57:28.383Z,13.90
2023-01-19T16:02:34.050Z,13.86
2023-01-19T16:07:38.109Z,13.95
2023-01-19T16:12:42.400Z,13.92
2023-01-19T16:17:50.384Z,13.79
2023-01-19T16:23:00.693Z,13.67
2023-01-19T16:28:10.495Z,13.43
2023-01-19T16:33:16.547Z,13.46
2023-01-19T16:38:21.572Z,13.50
2023-01-19T16:43:28.348Z,13.52
2023-01-19T16:48:33.855Z,13.23
2023-01-19T16:53:38.873Z,13.39
2023-01-19T16:58:43.735Z,13.50
2023-01-19T17:03:49.529Z,13.43
2023-01-19T17:08:57.147Z,13.42
2023-01-19T17:14:03.329Z,13.52
2023-01-19T17:19:10.330Z,13.39
2023-01-19T17:24:14.583Z,13.38
2023-01-19T17:29:19.499Z,13.32
2023-01-19T17:34:25.229Z,13.04
2023-01-19T17:39:31.884Z,13.28
2023-01-19T17:44:37.269Z,13.24
2023-01-19T17:49:48.799Z,13.24
2023-01-19T17:54:55.908Z,13.30
2023-01-19T18:00:03.593Z,13.15
2023-01-19T18:05:20.221Z,13.01
2023-01-19T18:10:28.342Z,12.97
2023-01-19T18:15:40.713Z,12.79
2023-01-19T18:20:58.064Z,12.57
2023-01-19T18:26:11.888Z,12.69
2023-01-19T18:31:20.363Z,12.55
2023-01-19T18:36:26.926Z,12.53
2023-01-19T18:41:37.067Z,12.60
2023-01-19T18:46:45.426Z,12.69
2023-01-19T18:51:51.784Z,12.42
2023-01-19T18:57:00.871Z,12.30
2023-01-19T19:02:07.380Z,12.20
2023-01-19T19:07:19.536Z,12.13
2023-01-19T19:12:24.282Z,11.86
2023-01-19T19:17:31.401Z,11.83
2023-01-19T19:22:38.743Z,11.79
2023-01-19T19:27:45.650Z,11.66
2023-01-19T19:32:55.008Z,11.42
2023-01-19T19:38:02.894Z,11.57
2023-01-19T19:43:06.948Z,11.56
2023-01-19T19:48:11.019Z,11.52
2023-01-19T19:53:17.102Z,11.48
2023-01-19T19:58:21.294Z,11.40
2023-01-19T20:03:27.151Z,11.43
2023-01-19T20:08:32.847Z,11.42
2023-01-19T20:13:39.380Z,11.47
2023-01-19T20:18:45.372Z,11.43
2023-01-19T20:23:55.749Z,11.39
2023-01-19T20:29:03.083Z,11.26
2023-01-19T20:34:13.119Z,11.29
2023-01-19T20:39:19.719Z,11.29
2023-01-19T20:44:26.703Z,11.14
2023-01-19T20:49:30.847Z,11.13
2023-01-19T20:54:36.799Z,11.19
2023-01-19T20:59:41.121Z,10.99
2023-01-19T21:04:45.728Z,11.09
2023-01-19T21:09:52.078Z,11.18
2023-01-19T21:14:59.218Z,11.11
2023-01-19T21:20:05.961Z,11.16
2023-01-19T21:25:13.908Z,11.00
2023-01-19T21:30:19.537Z,11.01
2023-01-19T21:35:23.934Z,10.94
2023-01-19T21:40:30.253Z,10.83
2023-01-19T21:45:34.418Z,10.78
2023-01-19T21:50:38.778Z,10.92
2023-01-19T21:55:46.454Z,10.84
2023-01-19T22:00:50.915Z,10.89
2023-01-19T22:05:56.032Z,10.86
2023-01-19T22:11:05.845Z,10.82
2023-01-19T22:16:14.770Z,10.81
2023-01-19T22:21:21.824Z,10.92
2023-01-19T22:26:31.078Z,10.68
2023-01-19T22:31:35.483Z,10.73
2023-01-19T22:36:39.893Z,10.53
2023-01-19T22:41:47.349Z,10.46
2023-01-19T22:46:54.902Z,10.35
2023-01-19T22:52:00.371Z,10.37
2023-01-19T22:57:07.133Z,10.17
2023-01-19T23:02:12.456Z,10.19
2023-01-19T23:07:17.007Z,10.24
2023-01-19T23:12:22.361Z,10.46
2023-01-19T23:17:27.070Z,10.45
2023-01-19T23:22:32.185Z,10.40
2023-01-19T23:27:38.092Z,10.56
2023-01-19T23:32:47.580Z,10.77
2023-01-19T23:37:51.555Z,11.11
2023-01-19T23:42:57.270Z,11.24
2023-01-19T23:48:01.438Z,11.24
2023-01-19T23:53:05.524Z,11.65
2023-01-19T23:58:10.907Z,11.51
